Gilliam, Louisiana
Current Conditions -  °F | °C
As of 5:53 AM on Monday 20 Oct 2014 (Local Time) from KDTN Reporting Station
Clear Clear  
Wind Chill: 51°   Ceiling: Unl
Heat Index: 51°   Visibility: 10mi
Dew Point: 48°   Wind: 3mph
Humidity: 89%   Direction: 40°NE
Pressure: 30.07"   Gusts: NA
Location:  32.83°N, 93.85°W
Report Text: KDTN 201053Z AUTO 04003KT 10SM CLR 11/09 A3007 RMK AO2 SLP182 T01060089
Loading
Personal Weather Stations






























Interactive Weather Map
Tropical Storm Tracking
New forecast layout! Learn more

10-Day Weather Forecast

Advertisements
Track Severe Weather on mobile